CCSO

Carbon Collective Climate Solutions U.S. Equity ETF

About the Fund

The Carbon Collective Climate Solutions U.S. Equities ETF is a diversified, US-focused all cap portfolio that allows investors to align their portfolio with solving climate change. The fund offers broad exposure to the climate solutions space and the growing number of US-listed companies within it.

To remain below 1.5ºC of global warming, hundreds of industries must rapidly scale in the coming decades. Using the All US-listed equities as its starting universe, CCSO grants exposure to these industries by including only those companies who generate at least 50% of their revenue from building climate solutions. The resulting list of equities are weighted by market-cap with no single one allowed to make up more than 5% of the fund.

With Carbon Collective & CCSO, investors can level up from “less bad” portfolios to holding the companies actually solving our greatest global challenge, climate change. From clean energy, to building automation, the circular economy, clean transportation, and sustainable food, CCSO diversifies across climate solutions and market caps.

Go beyond reducing your portfolio’s carbon footprint. Invest in the companies actually building climate solutions.

Fund Details

Name value date
30-Day SEC Yield - 9/19/2022
Name value date
30-Day SEC Yield - 9/19/2022

* The 30-Day Yield represents net investment income earned by the Fund over the 30-Day period ended on the date indicated by the Yield, expressed as an annual percentage rate based on the Fund’s share price at the end of the 30-Day period. The 30-Day unsubsidized SEC Yield does not reflect any fee waivers/reimbursements/limits in effect.

Fund Data & Pricing

Name value
Net Assets $4.10m
NAV $18.22
Shares Outstanding 225,000.00
Premium/discount Percentage 0.32%
Closing Price $18.28
Median 30 Day Spread 0.53%
Name
09/27/2022
*30 Day Median Spread is a calculation of Fund’s median bid-ask spread, expressed as a percentage rounded to the nearest hundredth, computed by: identifying the Fund’s national best bid and national best offer as of the end of each 10 second interval during each trading day of the last 30 calendar days; dividing the difference between each such bid and offer by the midpoint of the national best bid and national best offer; and identifying the median of those values.

Performance

The performance data quoted above represents past performance. Past performance does not guarantee future results. The investment return and principal value of an investment will fluctuate so that an investor’s shares, when sold or redeemed, may be worth more or less than their original cost and current performance may be lower or higher than the performance quoted above. Performance current to the most recent month-end can be obtained by calling (833)-794-0140.

Short term performance, in particular, is not a good indication of the fund’s future performance, and an investment should not be made based solely on historical returns. Returns beyond 1 year are annualized.

A fund’s NAV is the sum of all its assets less any liabilities, divided by the number of shares outstanding. The market price is the most recent price at which the fund was traded.

The fund actively rotates between long-tern US treasuries and high yield corporate bonds on a weekly basis based on a proprietary signal that considers the relative performance of large cap US equities and US utilities equities. The fund is composed of US-listed ETF securities.

Distribution Detail

Top 10 Holdings

Name
09/28/2022
Date Account Name Name CUSIP Shares Price Market Value Weightings NetAssets SharesOutstanding CreationUnits MoneyMarketFlag
28/09/2022 CCSO AAON AAON INC 000360206 189 54.66 10,330.74 0.25% 4,100,557 225,000 9
28/09/2022 CCSO ABB ABB LTD 000375204 7,227 25.47 184,071.69 4.49% 4,100,557 225,000 9
28/09/2022 CCSO ACHR ARCHER AVIATION INC 03945R102 900 2.78 2,502.00 0.06% 4,100,557 225,000 9
28/09/2022 CCSO ADN ADVENT TECHNOLOGIES HOLDNG INC COM CL A 00788A105 162 3.24 524.88 0.01% 4,100,557 225,000 9
28/09/2022 CCSO ADSE ADS TEC ENERGY PLC G0085J117 162 7.57 1,226.34 0.03% 4,100,557 225,000 9
28/09/2022 CCSO AGFS AGROFRESH SOLUTIONS INC 00856G109 189 1.60 302.40 0.01% 4,100,557 225,000 9
28/09/2022 CCSO AGR AVANGRID INC 05351W103 1,359 43.68 59,361.12 1.45% 4,100,557 225,000 9
28/09/2022 CCSO AGRX AGILE THERAPEUTICS INC 00847L209 756 0.28 215.08 0.01% 4,100,557 225,000 9
28/09/2022 CCSO AMPS ALTUS POWER INC 02217A102 558 13.90 7,756.20 0.19% 4,100,557 225,000 9
28/09/2022 CCSO AMRC AMERESCO INC 02361E108 180 66.24 11,923.20 0.29% 4,100,557 225,000 9
28/09/2022 CCSO AMSC AMERICAN SUPERCONDUCTOR CORP SHS NEW 030111207 90 4.55 409.50 0.01% 4,100,557 225,000 9
28/09/2022 CCSO APOG APOGEE ENTERPRISES INC 037598109 72 37.98 2,734.56 0.07% 4,100,557 225,000 9
28/09/2022 CCSO AQMS AQUA METALS INC 03837J101 261 0.80 208.83 0.01% 4,100,557 225,000 9
28/09/2022 CCSO AQN ALGONQUIN PWR UTILS CORP 015857105 3,267 11.54 37,689.16 0.92% 4,100,557 225,000 9
28/09/2022 CCSO ARRY ARRAY TECHNOLOGIES INC 04271T100 531 16.83 8,936.73 0.22% 4,100,557 225,000 9
28/09/2022 CCSO ARVL ARRIVAL GROUP L0423Q108 2,322 0.83 1,927.26 0.05% 4,100,557 225,000 9
28/09/2022 CCSO AUDC AUDIOCODES LTD M15342104 108 21.24 2,293.92 0.06% 4,100,557 225,000 9
28/09/2022 CCSO AY ATLANTICA SUSTAINABLE INFR PLC SHS G0751N103 396 27.15 10,751.40 0.26% 4,100,557 225,000 9
28/09/2022 CCSO AYI ACUITY BRANDS INC 00508Y102 117 153.51 17,960.67 0.44% 4,100,557 225,000 9
28/09/2022 CCSO AYRO AYRO INC 054748108 126 0.64 80.01 0.00% 4,100,557 225,000 9
28/09/2022 CCSO AZRE AZURE PWR GLOBAL LTD V0393H103 198 5.75 1,138.50 0.03% 4,100,557 225,000 9
28/09/2022 CCSO BECN BEACON ROOFING SUPPLY INC 073685109 225 51.99 11,697.75 0.29% 4,100,557 225,000 9
28/09/2022 CCSO BEEM BEAM GLOBAL 07373B109 27 12.78 345.06 0.01% 4,100,557 225,000 9
28/09/2022 CCSO BEPC BROOKFIELD RENEWABLE CORP 11284V105 603 33.91 20,447.73 0.50% 4,100,557 225,000 9
28/09/2022 CCSO BHIL BENSON HILL INC 082490103 720 2.40 1,728.00 0.04% 4,100,557 225,000 9
28/09/2022 CCSO BLD TOPBUILD CORP 89055F103 117 158.15 18,503.55 0.45% 4,100,557 225,000 9
28/09/2022 CCSO BLDP BALLARD PWR SYS INC NEW 058586108 1,080 6.64 7,171.20 0.17% 4,100,557 225,000 9
28/09/2022 CCSO BLNK BLINK CHARGING CO 09354A100 189 18.21 3,441.69 0.08% 4,100,557 225,000 9
28/09/2022 CCSO BMI BADGER METER INC 056525108 99 92.91 9,198.09 0.22% 4,100,557 225,000 9
28/09/2022 CCSO BRDS BIRD GLOBAL INC 09077J107 936 0.31 294.09 0.01% 4,100,557 225,000 9
28/09/2022 CCSO BWEN BROADWIND INC 11161T207 72 3.14 226.08 0.01% 4,100,557 225,000 9
28/09/2022 CCSO BYND BEYOND MEAT INC 08862E109 234 14.73 3,446.82 0.08% 4,100,557 225,000 9
28/09/2022 CCSO CARR CARRIER GLOBAL CORPORATION 14448C104 3,123 35.55 111,022.65 2.71% 4,100,557 225,000 9
28/09/2022 CCSO CBAT CBAK ENERGY TECHNOLOGY INC 14986C102 315 1.25 393.75 0.01% 4,100,557 225,000 9
28/09/2022 CCSO CCJ CAMECO CORP 13321L108 1,476 26.42 38,995.92 0.95% 4,100,557 225,000 9
28/09/2022 CCSO CENN CENNTRO ELECTRIC GROUP LIMITED ORD SHS Q6519V120 999 1.04 1,038.96 0.03% 4,100,557 225,000 9
28/09/2022 CCSO CHPT CHARGEPOINT HOLDINGS INC 15961R105 1,287 15.22 19,588.14 0.48% 4,100,557 225,000 9
28/09/2022 CCSO CIG CIA ENERGETICA DE MINAS GERAIS SP ADR N-V PFD 204409601 45,297 2.08 94,217.76 2.30% 4,100,557 225,000 9
28/09/2022 CCSO CLRO CLEARONE INC 18506U104 81 0.58 47.17 0.00% 4,100,557 225,000 9
28/09/2022 CCSO CMC COMMERCIAL METALS CO 201723103 423 36.39 15,392.97 0.38% 4,100,557 225,000 9
28/09/2022 CCSO CRKN CROWN ELECTROKINETICS CORP 228339206 54 0.27 14.64 0.00% 4,100,557 225,000 9
28/09/2022 CCSO CSIQ CANADIAN SOLAR INC 136635109 225 38.51 8,664.75 0.21% 4,100,557 225,000 9
28/09/2022 CCSO CSWI CSW INDUSTRIALS INC 126402106 54 120.51 6,507.54 0.16% 4,100,557 225,000 9
28/09/2022 CCSO CWEN/A CLEARWAY ENERGY INC 18539C105 756 30.14 22,785.84 0.56% 4,100,557 225,000 9
28/09/2022 CCSO DNMR DANIMER SCIENTIFIC INC 236272100 369 3.01 1,110.69 0.03% 4,100,557 225,000 9
28/09/2022 CCSO DNN DENISON MINES CORP 248356107 4,023 1.12 4,505.76 0.11% 4,100,557 225,000 9
28/09/2022 CCSO DOCU DOCUSIGN INC 256163106 756 52.63 39,788.28 0.97% 4,100,557 225,000 9
28/09/2022 CCSO DQ DAQO NEW ENERGY CORP 23703Q203 270 51.33 13,859.10 0.34% 4,100,557 225,000 9
28/09/2022 CCSO EAF GRAFTECH INTL LTD 384313508 927 4.29 3,976.83 0.10% 4,100,557 225,000 9
28/09/2022 CCSO ED CONSOLIDATED EDISON INC 209115104 1,251 90.77 113,553.27 2.77% 4,100,557 225,000 9
28/09/2022 CCSO EFOI ENERGY FOCUS INC 29268T409 27 0.53 14.32 0.00% 4,100,557 225,000 9
28/09/2022 CCSO EGHT 8X8 INC NEW 282914100 459 3.62 1,661.58 0.04% 4,100,557 225,000 9
28/09/2022 CCSO ENIC ENEL CHILE S.A. 29278D105 5,166 1.41 7,284.06 0.18% 4,100,557 225,000 9
28/09/2022 CCSO ENPH ENPHASE ENERGY INC 29355A107 468 284.81 133,291.08 3.25% 4,100,557 225,000 9
28/09/2022 CCSO EOSE EOS ENERGY ENTERPRISES INC 29415C101 135 1.65 222.75 0.01% 4,100,557 225,000 9
28/09/2022 CCSO ES EVERSOURCE ENERGY 30040W108 1,215 82.49 100,225.35 2.44% 4,100,557 225,000 9
28/09/2022 CCSO ETN EATON CORP PLC G29183103 1,431 131.30 187,890.30 4.58% 4,100,557 225,000 9
28/09/2022 CCSO EVFM EVOFEM BIOSCIENCES INC 30048L203 351 0.18 61.78 0.00% 4,100,557 225,000 9
28/09/2022 CCSO EVGO EVGO INC 30052F100 1,044 8.36 8,727.84 0.21% 4,100,557 225,000 9
28/09/2022 CCSO EXC EXELON CORP 30161N101 3,510 40.15 140,926.50 3.44% 4,100,557 225,000 9
28/09/2022 CCSO EZGO EZGO TECHNOLOGIES LTD G5279F102 81 0.46 36.95 0.00% 4,100,557 225,000 9
28/09/2022 CCSO FF FUTUREFUEL CORP 36116M106 144 5.91 851.04 0.02% 4,100,557 225,000 9
28/09/2022 CCSO FFIE FARADAY FUTRE INTLGT ELCTR INC COM 307359109 1,269 0.89 1,129.41 0.03% 4,100,557 225,000 9
28/09/2022 CCSO FIX COMFORT SYS USA INC 199908104 117 96.48 11,288.16 0.28% 4,100,557 225,000 9
28/09/2022 CCSO FLNC FLUENCE ENERGY INC 34379V103 639 14.45 9,233.55 0.23% 4,100,557 225,000 9
28/09/2022 CCSO FLUX FLUX PWR HLDGS INC 344057302 54 2.54 137.16 0.00% 4,100,557 225,000 9
28/09/2022 CCSO FREY FREYR BATTERY L4135L100 432 13.65 5,896.80 0.14% 4,100,557 225,000 9
28/09/2022 CCSO FRGT FREIGHT TECHNOLOGIES INC G51413105 27 0.54 14.45 0.00% 4,100,557 225,000 9
28/09/2022 CCSO FSLR FIRST SOLAR INC 336433107 369 132.31 48,822.39 1.19% 4,100,557 225,000 9
28/09/2022 CCSO FSR FISKER INC 33813J106 1,080 7.98 8,618.40 0.21% 4,100,557 225,000 9
28/09/2022 CCSO FTCI FTC SOLAR INC 30320C103 360 3.10 1,116.00 0.03% 4,100,557 225,000 9
28/09/2022 CCSO FUV ARCIMOTO INC 039587100 135 1.38 186.30 0.00% 4,100,557 225,000 9
28/09/2022 CCSO GFL GFL ENVIRONMENTAL INC 36168Q104 1,620 25.30 40,986.00 1.00% 4,100,557 225,000 9
28/09/2022 CCSO GOEV CANOO INC 13803R102 1,080 2.03 2,192.40 0.05% 4,100,557 225,000 9
28/09/2022 CCSO GP GREENPOWER MTR CO INC 39540E302 108 2.34 252.72 0.01% 4,100,557 225,000 9
28/09/2022 CCSO GRNA GREENLIGHT BIOSCIENCS HLDS PBC COMMON STOCK 39536G105 405 2.29 927.45 0.02% 4,100,557 225,000 9
28/09/2022 CCSO GWH ESS TECH INC 26916J106 522 4.33 2,260.26 0.06% 4,100,557 225,000 9
28/09/2022 CCSO HAIN HAIN CELESTIAL GROUP INC 405217100 315 16.17 5,093.55 0.12% 4,100,557 225,000 9
28/09/2022 CCSO HASI HANNON ARMSTRONG SUST INFR CAP COM 41068X100 306 30.51 9,336.06 0.23% 4,100,557 225,000 9
28/09/2022 CCSO HDSN HUDSON TECHNOLOGIES INC 444144109 144 6.89 992.16 0.02% 4,100,557 225,000 9
28/09/2022 CCSO HLBZ HELBIZ INC 42309B204 180 0.39 70.92 0.00% 4,100,557 225,000 9
28/09/2022 CCSO HLGN HELIOGEN INC 42329E105 657 1.72 1,130.04 0.03% 4,100,557 225,000 9
28/09/2022 CCSO HSC HARSCO CORP 415864107 288 4.11 1,183.68 0.03% 4,100,557 225,000 9
28/09/2022 CCSO HTOO FUSION FUEL GREEN PLC G3R25D118 36 5.55 199.80 0.00% 4,100,557 225,000 9
28/09/2022 CCSO HYZN HYZON MOTORS INC 44951Y102 918 1.80 1,652.40 0.04% 4,100,557 225,000 9
28/09/2022 CCSO IAA IAA INC 449253103 477 31.83 15,182.91 0.37% 4,100,557 225,000 9
28/09/2022 CCSO IBP INSTALLED BLDG PRODS INC 45780R101 99 78.92 7,813.08 0.19% 4,100,557 225,000 9
28/09/2022 CCSO IDEX IDEANOMICS INC 45166V106 1,746 0.33 575.13 0.01% 4,100,557 225,000 9
28/09/2022 CCSO IEA INFRA AND ENERGY ALTRNTIVE INC COM 45686J104 171 13.82 2,363.22 0.06% 4,100,557 225,000 9
28/09/2022 CCSO ISUN ISUN INC 465246106 45 2.04 91.80 0.00% 4,100,557 225,000 9
28/09/2022 CCSO ITRI ITRON INC 465741106 153 43.68 6,683.04 0.16% 4,100,557 225,000 9
28/09/2022 CCSO JAN JANONE INC 47089W104 9 2.13 19.17 0.00% 4,100,557 225,000 9
28/09/2022 CCSO JCI JOHNSON CTLS INTL PLC G51502105 2,511 49.29 123,767.19 3.02% 4,100,557 225,000 9
28/09/2022 CCSO JKS JINKOSOLAR HLDG CO LTD 47759T100 180 53.50 9,630.00 0.23% 4,100,557 225,000 9
28/09/2022 CCSO JOBY JOBY AVIATION INC G65163100 2,259 4.86 10,978.74 0.27% 4,100,557 225,000 9
28/09/2022 CCSO JZXN JIUZI HOLDINGS INC G51400102 72 0.38 27.60 0.00% 4,100,557 225,000 9
28/09/2022 CCSO KLTR KALTURA INC 483467106 468 2.23 1,043.64 0.03% 4,100,557 225,000 9
28/09/2022 CCSO KNDI KANDI TECHNOLOGIES GROUP INC COM 483709101 270 2.07 558.90 0.01% 4,100,557 225,000 9
28/09/2022 CCSO KULR KULR TECHNOLOGY GROUP INC 50125G109 396 1.31 518.76 0.01% 4,100,557 225,000 9
28/09/2022 CCSO LCID LUCID GROUP INC 549498103 6,030 14.41 86,892.30 2.12% 4,100,557 225,000 9
28/09/2022 CCSO LEDS SEMILEDS CORP 816645204 9 2.33 20.97 0.00% 4,100,557 225,000 9
28/09/2022 CCSO LEU CENTRUS ENERGY CORP 15643U104 45 39.38 1,772.10 0.04% 4,100,557 225,000 9
28/09/2022 CCSO LEV THE LION ELECTRIC COMPANY 536221104 702 2.98 2,091.96 0.05% 4,100,557 225,000 9
28/09/2022 CCSO LFG ARCHAEA ENERGY INC 03940F103 423 18.36 7,766.28 0.19% 4,100,557 225,000 9
28/09/2022 CCSO LI LI AUTO INC 50202M102 3,717 25.72 95,601.24 2.33% 4,100,557 225,000 9
28/09/2022 CCSO LICY LI-CYCLE HOLDINGS CORP 50202P105 639 6.02 3,846.78 0.09% 4,100,557 225,000 9
28/09/2022 CCSO LII LENNOX INTL INC 526107107 126 221.28 27,881.28 0.68% 4,100,557 225,000 9
28/09/2022 CCSO LKQ LKQ CORP 501889208 936 47.22 44,197.92 1.08% 4,100,557 225,000 9
28/09/2022 CCSO LOOP LOOP INDS INC 543518104 144 4.59 660.96 0.02% 4,100,557 225,000 9
28/09/2022 CCSO LSF LAIRD SUPERFOOD INC 50736T102 27 1.85 49.95 0.00% 4,100,557 225,000 9
28/09/2022 CCSO LTBR LIGHTBRIDGE CORP 53224K302 36 4.34 156.24 0.00% 4,100,557 225,000 9
28/09/2022 CCSO LTHM LIVENT CORP 53814L108 630 31.32 19,731.60 0.48% 4,100,557 225,000 9
28/09/2022 CCSO LYTS LSI INDS INC OHIO 50216C108 99 7.33 725.67 0.02% 4,100,557 225,000 9
28/09/2022 CCSO MAXN MAXEON SOLAR TECHNOLOGIES LTD SHS Y58473102 144 24.40 3,513.60 0.09% 4,100,557 225,000 9
28/09/2022 CCSO MNTK MONTAUK RENEWABLES INC 61218C103 522 18.06 9,427.32 0.23% 4,100,557 225,000 9
28/09/2022 CCSO MULN MULLEN AUTOMOTIVE INC 62526P109 1,935 0.33 642.81 0.02% 4,100,557 225,000 9
28/09/2022 CCSO MVST MICROVAST HOLDINGS INC 59516C106 1,080 1.93 2,084.40 0.05% 4,100,557 225,000 9
28/09/2022 CCSO NEE NEXTERA ENERGY INC 65339F101 2,592 81.08 210,159.36 5.13% 4,100,557 225,000 9
28/09/2022 CCSO NEP NEXTERA ENERGY PARTNERS LP 65341B106 297 74.18 22,031.46 0.54% 4,100,557 225,000 9
28/09/2022 CCSO NIO NIO INC 62914V106 6,084 17.19 104,583.96 2.55% 4,100,557 225,000 9
28/09/2022 CCSO NIU NIU TECHNOLOGIES 65481N100 270 4.54 1,225.80 0.03% 4,100,557 225,000 9
28/09/2022 CCSO NKLA NIKOLA CORP 654110105 1,557 3.90 6,072.30 0.15% 4,100,557 225,000 9
28/09/2022 CCSO NOVA SUNNOVA ENERGY INTL INC. 86745K104 405 24.10 9,760.50 0.24% 4,100,557 225,000 9
28/09/2022 CCSO NRGV ENERGY VAULT HOLDINGS INC 29280W109 468 5.42 2,536.56 0.06% 4,100,557 225,000 9
28/09/2022 CCSO NUE NUCOR CORP 670346105 927 105.29 97,603.83 2.38% 4,100,557 225,000 9
28/09/2022 CCSO NVVE NUVVE HOLDING CORP 67079Y100 81 1.63 132.03 0.00% 4,100,557 225,000 9
28/09/2022 CCSO NX QUANEX BLDG PRODS CORP 747619104 117 18.35 2,146.95 0.05% 4,100,557 225,000 9
28/09/2022 CCSO NXE NEXGEN ENERGY LTD 65340P106 2,313 3.72 8,604.36 0.21% 4,100,557 225,000 9
28/09/2022 CCSO OBLG OBLONG INC 674434105 108 0.15 16.20 0.00% 4,100,557 225,000 9
28/09/2022 CCSO OESX ORION ENERGY SYS INC 686275108 108 1.55 167.40 0.00% 4,100,557 225,000 9
28/09/2022 CCSO OIG ORBITAL INFRASTRUCTURE GRP INC COM 68559A109 423 0.51 213.74 0.01% 4,100,557 225,000 9
28/09/2022 CCSO OLED UNIVERSAL DISPLAY CORP 91347P105 162 96.77 15,676.74 0.38% 4,100,557 225,000 9
28/09/2022 CCSO ORA ORMAT TECHNOLOGIES INC 686688102 189 89.45 16,906.05 0.41% 4,100,557 225,000 9
28/09/2022 CCSO ORGN ORIGIN MATERIALS INC 68622D106 522 5.21 2,719.62 0.07% 4,100,557 225,000 9
28/09/2022 CCSO OTLY OATLY GROUP AB 67421J108 2,079 2.69 5,592.51 0.14% 4,100,557 225,000 9
28/09/2022 CCSO PCG PG&E CORP 69331C108 8,496 12.41 105,435.36 2.57% 4,100,557 225,000 9
28/09/2022 CCSO PCT PURECYCLE TECHNOLOGIES INC 74623V103 567 8.73 4,949.91 0.12% 4,100,557 225,000 9
28/09/2022 CCSO PESI PERMA-FIX ENVIRONMENTAL SVCS COM NEW 714157203 36 4.61 165.96 0.00% 4,100,557 225,000 9
28/09/2022 CCSO PGTI PGT INNOVATIONS INC 69336V101 207 19.33 4,001.31 0.10% 4,100,557 225,000 9
28/09/2022 CCSO PLPC PREFORMED LINE PRODS CO 740444104 9 72.14 649.26 0.02% 4,100,557 225,000 9
28/09/2022 CCSO PLUG PLUG POWER INC 72919P202 2,124 21.85 46,409.40 1.13% 4,100,557 225,000 9
28/09/2022 CCSO PTRA PROTERRA INC 74374T109 819 4.86 3,980.34 0.10% 4,100,557 225,000 9
28/09/2022 CCSO PWR QUANTA SVCS INC 74762E102 504 125.55 63,277.20 1.54% 4,100,557 225,000 9
28/09/2022 CCSO PYR PYROGENESIS CDA INC 74734T104 837 1.23 1,029.51 0.03% 4,100,557 225,000 9
28/09/2022 CCSO QRHC QUEST RESOURCE HLDG CORP 74836W203 63 7.42 467.46 0.01% 4,100,557 225,000 9
28/09/2022 CCSO QS QUANTUMSCAPE CORP 74767V109 1,602 9.11 14,594.22 0.36% 4,100,557 225,000 9
28/09/2022 CCSO REFR RESEARCH FRONTIERS INC 760911107 99 2.20 217.80 0.01% 4,100,557 225,000 9
28/09/2022 CCSO RENO RENOVARE ENVIRONMENTAL INC 09074B107 108 0.06 6.47 0.00% 4,100,557 225,000 9
28/09/2022 CCSO RERE ATRENEW INC 00138L108 774 2.50 1,935.00 0.05% 4,100,557 225,000 9
28/09/2022 CCSO RETO RETO ECO SOLUTIONS INC G75271109 126 0.42 52.92 0.00% 4,100,557 225,000 9
28/09/2022 CCSO RIVN RIVIAN AUTOMOTIVE INC 76954A103 3,393 33.79 114,649.47 2.80% 4,100,557 225,000 9
28/09/2022 CCSO RMO ROMEO POWER INC 776153108 711 0.43 305.73 0.01% 4,100,557 225,000 9
28/09/2022 CCSO RNW RENEW ENERGY GLOBAL PLC G7500M104 990 6.31 6,246.90 0.15% 4,100,557 225,000 9
28/09/2022 CCSO RUN SUNRUN INC 86771W105 747 30.24 22,589.28 0.55% 4,100,557 225,000 9
28/09/2022 CCSO SCHN SCHNITZER STEEL INDS INC 806882106 90 29.33 2,639.70 0.06% 4,100,557 225,000 9
28/09/2022 CCSO SEDG SOLAREDGE TECHNOLOGIES INC 83417M104 198 249.58 49,416.84 1.21% 4,100,557 225,000 9
28/09/2022 CCSO SES SES AI CORPORATION 78397Q109 1,179 4.90 5,777.10 0.14% 4,100,557 225,000 9
28/09/2022 CCSO SEV SONO GROUP N V N81409109 288 2.58 743.04 0.02% 4,100,557 225,000 9
28/09/2022 CCSO SHLS SHOALS TECHNOLOGIES GROUP INC CL A 82489W107 594 20.06 11,915.64 0.29% 4,100,557 225,000 9
28/09/2022 CCSO SLDP SOLID POWER INC 83422N105 630 5.50 3,465.00 0.08% 4,100,557 225,000 9
28/09/2022 CCSO SOL RENESOLA LTD 75971T301 243 5.21 1,266.03 0.03% 4,100,557 225,000 9
28/09/2022 CCSO SPI SPI ENERGY CO LTD G8651P110 99 1.35 133.65 0.00% 4,100,557 225,000 9
28/09/2022 CCSO SPWR SUNPOWER CORP 867652406 612 24.56 15,030.72 0.37% 4,100,557 225,000 9
28/09/2022 CCSO SRE SEMPRA 816851109 1,098 154.15 169,256.70 4.13% 4,100,557 225,000 9
28/09/2022 CCSO STEM STEM INC 85859N102 558 12.89 7,192.62 0.18% 4,100,557 225,000 9
28/09/2022 CCSO STKH STEAKHOLDER FOODS LTD 583435102 45 2.30 103.50 0.00% 4,100,557 225,000 9
28/09/2022 CCSO STKL SUNOPTA INC 8676EP108 396 8.99 3,560.04 0.09% 4,100,557 225,000 9
28/09/2022 CCSO STLD STEEL DYNAMICS INC 858119100 648 70.76 45,852.48 1.12% 4,100,557 225,000 9
28/09/2022 CCSO SUNW SUNWORKS INC 86803X204 117 3.13 366.21 0.01% 4,100,557 225,000 9
28/09/2022 CCSO SVFD SAVE FOODS INC 80512Q303 9 1.90 17.10 0.00% 4,100,557 225,000 9
28/09/2022 CCSO TGLS TECNOGLASS INC G87264100 171 19.93 3,408.03 0.08% 4,100,557 225,000 9
28/09/2022 CCSO TMC TMC THE METALS COMPANY INC 87261Y106 666 1.04 692.64 0.02% 4,100,557 225,000 9
28/09/2022 CCSO TPIC TPI COMPOSITES INC 87266J104 126 12.30 1,549.80 0.04% 4,100,557 225,000 9
28/09/2022 CCSO TSLA TESLA INC 88160R101 729 282.94 206,263.26 5.03% 4,100,557 225,000 9
28/09/2022 CCSO UEC URANIUM ENERGY CORP 916896103 1,206 3.43 4,136.58 0.10% 4,100,557 225,000 9
28/09/2022 CCSO URG UR-ENERGY INC 91688R108 1,035 1.15 1,190.25 0.03% 4,100,557 225,000 9
28/09/2022 CCSO VERU VERU INC 92536C103 297 11.11 3,299.67 0.08% 4,100,557 225,000 9
28/09/2022 CCSO VLCN VOLCON INC 92864V103 81 1.90 153.90 0.00% 4,100,557 225,000 9
28/09/2022 CCSO VLTA VOLTA INC 92873V102 612 1.52 930.24 0.02% 4,100,557 225,000 9
28/09/2022 CCSO VMI VALMONT INDS INC 920253101 81 263.23 21,321.63 0.52% 4,100,557 225,000 9
28/09/2022 CCSO VVPR VIVOPOWER INTERNATIONAL PLC G9376R100 72 0.73 52.32 0.00% 4,100,557 225,000 9
28/09/2022 CCSO WAVE ECO WAVE POWER GLOBAL AB 27900N103 9 3.78 34.02 0.00% 4,100,557 225,000 9
28/09/2022 CCSO WBX WALLBOX NV N94209108 540 7.97 4,303.80 0.10% 4,100,557 225,000 9
28/09/2022 CCSO WCN WASTE CONNECTIONS INC 94106B101 909 137.68 125,151.12 3.05% 4,100,557 225,000 9
28/09/2022 CCSO WLDN WILLDAN GROUP INC 96924N100 45 15.69 706.05 0.02% 4,100,557 225,000 9
28/09/2022 CCSO WM WASTE MGMT INC DEL 94106L109 1,323 163.22 215,940.06 5.27% 4,100,557 225,000 9
28/09/2022 CCSO WTS WATTS WATER TECHNOLOGIES INC CL A 942749102 117 122.84 14,372.28 0.35% 4,100,557 225,000 9
28/09/2022 CCSO WWR WESTWATER RES INC 961684206 171 1.15 196.65 0.00% 4,100,557 225,000 9
28/09/2022 CCSO XL XL FLEET CORP 9837FR100 540 0.91 493.67 0.01% 4,100,557 225,000 9
28/09/2022 CCSO XPEV XPENG INC 98422D105 3,024 13.71 41,459.04 1.01% 4,100,557 225,000 9
28/09/2022 CCSO YTEN YIELD10 BIOSCIENCE INC 98585K862 18 3.23 58.14 0.00% 4,100,557 225,000 9
28/09/2022 CCSO ZEV LIGHTNING EMOTORS INC 53228T101 288 1.67 480.96 0.01% 4,100,557 225,000 9
28/09/2022 CCSO ZM ZOOM VIDEO COMMUNICATIONS INC CL A 98980L101 1,071 74.26 79,532.46 1.94% 4,100,557 225,000 9
28/09/2022 CCSO Cash&Other Cash & Other Cash&Other 6,411 1.00 6,411.89 0.16% 4,100,557 225,000 9 Y

Holdings are subject to change without notice.

Purchase

The Fund (CCSO) is available through various channels including via phone (833) 794-0140, broker-dealers, investment advisers, and other financial services firms, including:

This Fund is not affiliated with these financial service firms. Their listing should not be viewed as a recommendation or endorsement.

In the News

No posts found